Time;durP1;ratioP1;P1;durP2;ratioP2;P2;SDS_P1;SDS_P2;PMS_P1;PMS_P2;Temp;Humidity;BMP_temperature;BMP_pressure;BME280_temperature;BME280_humidity;BME280_pressure;Samples;Min_cycle;Max_cycle;Signal;HPM_P1;HPM_P2
2021/07/17 00:02:15;;;;;;;35.77;17.27;;;;;14.10;102019.00;;;;10449730;28;20734;-76
2021/07/17 00:07:18;;;;;;;44.60;20.03;;;;;14.10;102011.00;;;;10423516;28;20193;-76
2021/07/17 00:12:19;;;;;;;39.57;18.70;;;;;14.00;102029.00;;;;10465774;28;20569;-76
2021/07/17 00:17:22;;;;;;;40.07;20.47;;;;;14.00;102026.00;;;;10423709;28;20310;-75
2021/07/17 00:22:24;;;;;;;40.90;19.67;;;;;14.00;102021.00;;;;10464863;28;20208;-75
2021/07/17 00:27:26;;;;;;;40.83;20.20;;;;;13.90;102022.00;;;;10481234;28;20189;-76
2021/07/17 00:32:29;;;;;;;35.47;19.10;;;;;13.90;102017.00;;;;10464794;28;20607;-76
2021/07/17 00:37:31;;;;;;;38.87;19.40;;;;;13.80;102019.00;;;;10464310;28;20186;-76
2021/07/17 00:42:50;;;;;;;36.17;18.97;;;;;13.80;102011.00;;;;10464329;28;20680;-76
2021/07/17 00:47:52;;;;;;;36.50;20.73;;;;;13.70;102020.00;;;;10439286;28;20202;-75
2021/07/17 00:52:54;;;;;;;47.23;20.87;;;;;13.60;102020.00;;;;10457296;28;20191;-75
2021/07/17 00:57:57;;;;;;;42.87;21.10;;;;;13.60;102023.00;;;;10406352;28;20653;-76
2021/07/17 01:03:05;;;;;;;37.33;20.07;;;;;13.60;102023.00;;;;10479375;28;20700;-75
2021/07/17 01:08:07;;;;;;;39.27;20.57;;;;;13.50;102026.00;;;;10479778;28;20644;-75
2021/07/17 01:13:10;;;;;;;44.30;21.87;;;;;13.50;102035.00;;;;10430800;28;20190;-75
2021/07/17 01:18:12;;;;;;;43.97;22.97;;;;;13.50;102026.00;;;;10446709;28;20198;-76
2021/07/17 01:23:14;;;;;;;47.67;21.23;;;;;13.40;102031.00;;;;10479505;28;20212;-76
2021/07/17 01:28:17;;;;;;;43.03;23.47;;;;;13.40;102037.00;;;;10461575;28;20190;-75
2021/07/17 01:33:19;;;;;;;47.00;24.17;;;;;13.60;102036.00;;;;10478208;28;20267;-75
2021/07/17 01:38:21;;;;;;;50.50;23.97;;;;;13.70;102036.00;;;;10479353;28;20186;-75
2021/07/17 01:43:24;;;;;;;55.43;25.43;;;;;13.80;102040.00;;;;10463053;28;20236;-75
2021/07/17 01:48:32;;;;;;;46.90;25.93;;;;;13.90;102030.00;;;;10462542;28;20186;-75
2021/07/17 01:53:34;;;;;;;52.80;23.87;;;;;14.00;102030.00;;;;10467493;28;20202;-75
2021/07/17 01:58:35;;;;;;;51.67;25.37;;;;;14.10;102032.00;;;;10441961;28;20194;-75
2021/07/17 02:03:46;;;;;;;52.83;25.63;;;;;14.20;102021.00;;;;10461837;28;20653;-75
2021/07/17 02:08:48;;;;;;;48.83;25.70;;;;;14.20;102023.00;;;;10449907;28;20185;-75
2021/07/17 02:13:52;;;;;;;49.07;24.93;;;;;14.20;102011.00;;;;10445503;28;20202;-75
2021/07/17 02:19:04;;;;;;;54.60;26.03;;;;;14.20;102008.00;;;;10450843;28;20213;-76
2021/07/17 02:24:06;;;;;;;51.33;24.50;;;;;14.30;102012.00;;;;10437396;28;20202;-75
2021/07/17 02:29:09;;;;;;;48.73;25.40;;;;;14.30;102011.00;;;;10462905;28;20653;-76
2021/07/17 02:34:12;;;;;;;42.53;24.63;;;;;14.30;102020.00;;;;10469533;28;20677;-77
2021/07/17 02:39:14;;;;;;;56.93;25.63;;;;;14.40;102023.00;;;;10428269;28;20202;-76
2021/07/17 02:44:16;;;;;;;47.67;25.20;;;;;14.40;102020.00;;;;10431344;28;20280;-76
2021/07/17 02:49:18;;;;;;;46.03;24.97;;;;;14.50;102025.00;;;;10452548;28;20219;-76
2021/07/17 02:54:19;;;;;;;45.33;24.23;;;;;14.50;102031.00;;;;10467041;28;20198;-77
2021/07/17 02:59:21;;;;;;;53.67;24.13;;;;;14.50;102026.00;;;;10427281;28;20210;-77
2021/07/17 03:04:23;;;;;;;47.83;23.70;;;;;14.50;102024.00;;;;10458778;28;20213;-76
2021/07/17 03:09:25;;;;;;;54.17;24.33;;;;;14.50;102026.00;;;;10468117;28;20182;-76
2021/07/17 03:14:27;;;;;;;53.80;24.70;;;;;14.50;102034.00;;;;10451364;28;20595;-76
2021/07/17 03:19:29;;;;;;;49.87;23.77;;;;;14.60;102029.00;;;;10467443;28;20549;-76
2021/07/17 03:24:32;;;;;;;43.93;23.50;;;;;14.60;102027.00;;;;10466915;28;20190;-75
2021/07/17 03:29:34;;;;;;;46.27;24.40;;;;;14.60;102034.00;;;;10482857;28;20197;-75
2021/07/17 03:34:36;;;;;;;48.10;25.17;;;;;14.70;102036.00;;;;10436876;28;20214;-75
2021/07/17 03:39:38;;;;;;;39.47;22.87;;;;;14.70;102047.00;;;;10466352;28;20217;-76
2021/07/17 03:44:40;;;;;;;48.17;22.77;;;;;14.80;102038.00;;;;10440812;28;20206;-76
2021/07/17 03:49:42;;;;;;;46.10;22.87;;;;;14.80;102039.00;;;;10436583;28;20197;-76
2021/07/17 03:54:43;;;;;;;51.13;23.07;;;;;14.80;102041.00;;;;10466200;28;20653;-76
2021/07/17 03:59:45;;;;;;;48.20;22.43;;;;;14.80;102044.00;;;;10450057;28;20217;-76
2021/07/17 04:04:49;;;;;;;52.23;22.33;;;;;14.90;102041.00;;;;10466160;28;20193;-76
2021/07/17 04:09:50;;;;;;;43.30;24.23;;;;;14.90;102038.00;;;;10482192;28;20209;-76
2021/07/17 04:14:52;;;;;;;40.20;22.20;;;;;14.90;102042.00;;;;10464945;28;20178;-76
2021/07/17 04:19:54;;;;;;;43.33;22.07;;;;;15.00;102044.00;;;;10408428;28;20209;-76
2021/07/17 04:24:56;;;;;;;42.13;21.47;;;;;15.00;102043.00;;;;10421990;28;20541;-76
2021/07/17 04:29:58;;;;;;;43.43;22.77;;;;;15.00;102054.00;;;;10432413;28;20189;-76
2021/07/17 04:35:03;;;;;;;35.83;20.77;;;;;15.10;102043.00;;;;10464239;28;20270;-75
2021/07/17 04:40:05;;;;;;;47.47;21.65;;;;;15.10;102039.00;;;;10462495;28;20193;-75
2021/07/17 04:45:08;;;;;;;40.23;20.03;;;;;15.20;102039.00;;;;10481101;28;20205;-75
2021/07/17 04:50:10;;;;;;;43.53;20.40;;;;;15.20;102049.00;;;;10464237;28;20189;-76
2021/07/17 04:55:12;;;;;;;42.27;21.07;;;;;15.30;102047.00;;;;10446948;28;20725;-76
2021/07/17 05:00:15;;;;;;;41.22;21.98;;;;;15.40;102051.00;;;;10445318;28;20224;-76
2021/07/17 05:05:18;;;;;;;36.05;21.65;;;;;15.60;102046.00;;;;10462579;28;20194;-77
2021/07/17 05:10:24;;;;;;;38.65;19.52;;;;;15.80;102044.00;;;;10464107;28;20185;-76
2021/07/17 05:15:26;;;;;;;35.00;18.80;;;;;15.90;102052.00;;;;10463744;28;20193;-76
2021/07/17 05:20:28;;;;;;;33.55;18.83;;;;;16.00;102060.00;;;;10446933;28;20308;-76
2021/07/17 05:25:30;;;;;;;41.90;19.33;;;;;16.20;102057.00;;;;10422046;28;20726;-76
2021/07/17 05:30:32;;;;;;;30.45;18.35;;;;;16.40;102062.00;;;;10408896;28;20193;-76
2021/07/17 05:35:34;;;;;;;33.67;18.40;;;;;16.60;102068.00;;;;10446674;28;20271;-77
2021/07/17 05:40:36;;;;;;;37.95;17.27;;;;;16.80;102078.00;;;;10479422;28;20212;-76
2021/07/17 05:45:38;;;;;;;33.58;18.23;;;;;17.00;102075.00;;;;10469206;28;20247;-77
2021/07/17 05:50:40;;;;;;;32.78;15.60;;;;;17.30;102060.00;;;;10447424;28;20198;-76
2021/07/17 05:55:42;;;;;;;33.53;16.15;;;;;17.50;102061.00;;;;10448942;28;20193;-76
2021/07/17 06:00:45;;;;;;;29.00;14.30;;;;;17.70;102082.00;;;;10443494;28;20209;-76
2021/07/17 06:05:47;;;;;;;38.97;16.15;;;;;18.00;102087.00;;;;10488352;28;20197;-76
2021/07/17 06:10:48;;;;;;;39.47;15.52;;;;;18.20;102099.00;;;;10505121;28;20209;-76
2021/07/17 06:15:50;;;;;;;23.92;13.38;;;;;18.40;102100.00;;;;10487800;28;20189;-77
2021/07/17 06:20:52;;;;;;;30.65;13.57;;;;;18.70;102105.00;;;;10454251;28;20233;-76
2021/07/17 06:25:54;;;;;;;27.98;13.45;;;;;18.90;102122.00;;;;10470862;28;20193;-77
2021/07/17 06:30:56;;;;;;;21.35;11.90;;;;;19.20;102144.00;;;;10461511;28;20243;-76
2021/07/17 06:35:58;;;;;;;26.17;12.32;;;;;19.40;102143.00;;;;10470169;28;20258;-77
2021/07/17 06:41:01;;;;;;;22.73;12.45;;;;;19.60;102152.00;;;;10453714;28;20335;-77
2021/07/17 06:46:04;;;;;;;21.15;11.85;;;;;19.90;102153.00;;;;10454969;28;20205;-76
2021/07/17 06:51:08;;;;;;;21.58;10.95;;;;;20.00;102149.00;;;;10485250;28;20201;-76
2021/07/17 06:56:11;;;;;;;22.05;11.75;;;;;19.90;102158.00;;;;10434840;28;20208;-76
2021/07/17 07:01:13;;;;;;;19.52;11.55;;;;;20.00;102158.00;;;;10452397;28;20201;-76
2021/07/17 07:06:15;;;;;;;20.30;10.57;;;;;20.20;102154.00;;;;10484070;28;20239;-76
2021/07/17 07:11:17;;;;;;;22.02;12.57;;;;;21.10;102150.00;;;;10451620;28;20201;-77
2021/07/17 07:16:19;;;;;;;22.55;10.60;;;;;21.20;102151.00;;;;10485273;28;20594;-76
2021/07/17 07:21:21;;;;;;;21.83;10.57;;;;;21.40;102153.00;;;;10455093;28;20252;-77
2021/07/17 07:26:23;;;;;;;15.27;9.30;;;;;21.00;102155.00;;;;10464469;28;20199;-77
2021/07/17 07:31:25;;;;;;;14.57;10.10;;;;;21.50;102159.00;;;;10484346;28;20540;-77
2021/07/17 07:36:27;;;;;;;18.58;10.57;;;;;22.10;102160.00;;;;10492923;28;20210;-77
2021/07/17 07:41:29;;;;;;;20.92;10.07;;;;;22.90;102158.00;;;;10480332;28;20285;-77
2021/07/17 07:46:33;;;;;;;18.15;8.88;;;;;22.90;102155.00;;;;10448638;28;20201;-77
2021/07/17 07:51:35;;;;;;;18.05;9.05;;;;;22.80;102157.00;;;;10459291;28;20205;-78
2021/07/17 07:56:37;;;;;;;21.90;9.10;;;;;23.20;102153.00;;;;10453724;28;20194;-77
2021/07/17 08:01:39;;;;;;;15.43;8.82;;;;;23.10;102151.00;;;;10422874;28;20285;-78
2021/07/17 08:06:41;;;;;;;15.50;8.43;;;;;22.80;102145.00;;;;10433336;28;20198;-78
2021/07/17 08:11:43;;;;;;;20.40;8.68;;;;;23.40;102145.00;;;;10433945;28;20181;-77
2021/07/17 08:16:45;;;;;;;20.08;8.98;;;;;22.90;102135.00;;;;10460055;28;20193;-77
2021/07/17 08:21:47;;;;;;;20.40;8.68;;;;;23.90;102129.00;;;;10442325;28;20213;-77
2021/07/17 08:26:49;;;;;;;14.77;7.47;;;;;24.50;102135.00;;;;10432115;28;20652;-77
2021/07/17 08:31:50;;;;;;;16.60;6.90;;;;;25.00;102126.00;;;;10452324;28;20202;-77
2021/07/17 08:36:52;;;;;;;17.63;7.85;;;;;25.30;102122.00;;;;10463988;28;20212;-78
2021/07/17 08:41:56;;;;;;;13.65;7.25;;;;;25.60;102125.00;;;;10496196;28;20210;-77
2021/07/17 08:47:01;;;;;;;16.10;7.38;;;;;26.00;102131.00;;;;10475162;28;20213;-77
2021/07/17 08:52:04;;;;;;;16.25;7.43;;;;;26.80;102121.00;;;;10476849;28;20185;-77
2021/07/17 08:57:10;;;;;;;16.67;6.88;;;;;26.00;102128.00;;;;10444878;28;20201;-77
2021/07/17 09:02:11;;;;;;;15.60;6.45;;;;;25.80;102132.00;;;;10432765;28;20210;-77
2021/07/17 09:07:15;;;;;;;12.15;6.15;;;;;26.50;102129.00;;;;10444158;28;20201;-77
2021/07/17 09:12:22;;;;;;;13.25;5.50;;;;;27.00;102127.00;;;;10450750;28;20564;-79
2021/07/17 09:17:25;;;;;;;13.18;5.65;;;;;27.00;102118.00;;;;10461075;28;20196;-77
2021/07/17 09:22:37;;;;;;;14.63;5.90;;;;;27.50;102113.00;;;;10482853;28;20209;-77
2021/07/17 09:27:39;;;;;;;14.93;6.32;;;;;27.50;102118.00;;;;10461854;28;20680;-77
2021/07/17 09:32:57;;;;;;;15.82;6.70;;;;;27.80;102131.00;;;;10458609;28;20210;-77
2021/07/17 09:38:01;;;;;;;11.25;5.63;;;;;27.80;102121.00;;;;10445806;28;20656;-76
2021/07/17 09:43:03;;;;;;;13.00;4.95;;;;;28.00;102126.00;;;;10449581;28;20221;-76
2021/07/17 09:48:27;;;;;;;8.43;4.90;;;;;28.10;102113.00;;;;10441297;28;20193;-76
2021/07/17 09:53:49;;;;;;;11.20;5.10;;;;;28.20;102120.00;;;;10440080;28;20288;-76
2021/07/17 09:58:53;;;;;;;11.80;4.63;;;;;28.10;102122.00;;;;10485134;28;20185;-76
2021/07/17 10:04:05;;;;;;;12.13;4.72;;;;;28.60;102134.00;;;;10448725;28;20204;-76
2021/07/17 10:09:11;;;;;;;10.80;4.68;;;;;29.00;102127.00;;;;10430546;28;20198;-76
2021/07/17 10:14:15;;;;;;;10.57;4.40;;;;;29.30;102122.00;;;;10494562;28;20185;-76
2021/07/17 10:19:18;;;;;;;7.95;3.47;;;;;28.90;102120.00;;;;10465730;28;20269;-76
2021/07/17 10:24:20;;;;;;;8.88;3.75;;;;;29.10;102128.00;;;;10448135;28;20210;-76
2021/07/17 10:29:26;;;;;;;10.93;4.45;;;;;29.40;102111.00;;;;10461142;28;20882;-76
2021/07/17 10:34:32;;;;;;;10.05;4.10;;;;;29.00;102116.00;;;;10451082;28;20565;-76
2021/07/17 10:39:38;;;;;;;13.15;4.20;;;;;28.90;102114.00;;;;10448443;28;20252;-76
2021/07/17 10:44:42;;;;;;;9.45;3.88;;;;;29.00;102114.00;;;;10464921;28;20209;-76
2021/07/17 10:49:49;;;;;;;9.10;3.42;;;;;29.80;102104.00;;;;10468730;28;20252;-76
2021/07/17 10:54:51;;;;;;;8.18;3.55;;;;;30.20;102099.00;;;;10433100;28;20194;-76
2021/07/17 10:59:53;;;;;;;8.52;3.72;;;;;30.90;102084.00;;;;10465183;28;20194;-76
2021/07/17 11:04:58;;;;;;;6.95;3.30;;;;;30.30;102094.00;;;;10472936;28;20189;-75
2021/07/17 11:10:02;;;;;;;6.47;3.40;;;;;29.80;102085.00;;;;10457453;28;20202;-75
2021/07/17 11:15:04;;;;;;;5.97;3.50;;;;;30.00;102082.00;;;;10447142;28;20240;-76
2021/07/17 11:20:28;;;;;;;9.85;3.60;;;;;30.70;102080.00;;;;10420416;28;20190;-76
2021/07/17 11:25:31;;;;;;;7.07;3.60;;;;;30.80;102074.00;;;;10453364;28;20217;-76
2021/07/17 11:30:35;;;;;;;6.05;3.10;;;;;30.80;102072.00;;;;10445884;28;20251;-76
2021/07/17 11:35:49;;;;;;;7.65;3.38;;;;;31.20;102073.00;;;;10452311;28;20225;-76
2021/07/17 11:40:51;;;;;;;6.47;3.15;;;;;31.30;102067.00;;;;10441112;28;20233;-76
2021/07/17 11:45:53;;;;;;;7.78;3.40;;;;;29.80;102078.00;;;;10458274;28;20236;-76
2021/07/17 11:51:01;;;;;;;8.27;3.42;;;;;29.20;102067.00;;;;10471676;28;20272;-75
2021/07/17 11:56:03;;;;;;;9.05;3.75;;;;;30.10;102060.00;;;;10427521;28;20190;-76
2021/07/17 12:01:05;;;;;;;5.30;3.13;;;;;30.60;102054.00;;;;10426641;28;20562;-76
2021/07/17 12:06:07;;;;;;;6.63;3.60;;;;;30.70;102049.00;;;;10455189;28;20194;-76
2021/07/17 12:11:16;;;;;;;5.78;3.25;;;;;31.70;102045.00;;;;10457528;28;20217;-76
2021/07/17 12:16:22;;;;;;;5.45;3.47;;;;;31.20;102053.00;;;;10475515;28;20190;-76
2021/07/17 12:21:28;;;;;;;7.95;3.22;;;;;31.10;102043.00;;;;10457578;28;20206;-76
2021/07/17 12:26:29;;;;;;;7.85;2.80;;;;;31.00;102043.00;;;;10502322;28;20195;-77
2021/07/17 12:31:31;;;;;;;7.88;3.40;;;;;31.10;102045.00;;;;10494609;28;20198;-77
2021/07/17 12:36:41;;;;;;;5.10;2.97;;;;;31.20;102043.00;;;;10438208;28;20943;-77
2021/07/17 12:41:43;;;;;;;8.05;2.65;;;;;30.90;102034.00;;;;10437021;28;20214;-76
2021/07/17 12:46:49;;;;;;;6.20;2.80;;;;;31.10;102019.00;;;;10465387;28;20201;-76
2021/07/17 12:51:52;;;;;;;6.25;2.67;;;;;30.80;102022.00;;;;10476829;28;20193;-76
2021/07/17 12:56:59;;;;;;;4.78;2.30;;;;;31.00;102019.00;;;;10438685;28;20771;-76
2021/07/17 13:02:14;;;;;;;5.18;2.30;;;;;31.00;102024.00;;;;10420187;28;20237;-76
2021/07/17 13:07:32;;;;;;;3.55;1.75;;;;;31.00;102027.00;;;;10429767;28;20209;-76
2021/07/17 13:12:35;;;;;;;5.43;2.40;;;;;30.90;102002.00;;;;10419826;28;20244;-76
2021/07/17 13:17:37;;;;;;;3.00;2.03;;;;;30.40;102011.00;;;;10419874;28;20186;-76
2021/07/17 13:22:42;;;;;;;3.65;1.70;;;;;30.40;101995.00;;;;10448701;28;20209;-76
2021/07/17 13:27:45;;;;;;;4.63;1.80;;;;;30.80;102008.00;;;;10486031;28;20186;-76
2021/07/17 13:32:47;;;;;;;4.18;1.80;;;;;31.10;101998.00;;;;10409535;28;20673;-76
2021/07/17 13:38:20;;;;;;;3.55;1.63;;;;;31.10;102000.00;;;;10468379;28;20216;-76
2021/07/17 13:43:22;;;;;;;5.88;1.85;;;;;31.40;101997.00;;;;10419084;28;20236;-76
2021/07/17 13:48:24;;;;;;;4.93;2.00;;;;;32.10;101999.00;;;;10418564;28;20211;-76
2021/07/17 13:53:26;;;;;;;2.92;1.75;;;;;33.80;101984.00;;;;10434789;28;20194;-75
2021/07/17 13:58:28;;;;;;;3.90;1.65;;;;;35.30;101987.00;;;;10452690;28;20627;-76
2021/07/17 14:03:31;;;;;;;3.58;1.98;;;;;35.90;101982.00;;;;10435562;28;20228;-77
2021/07/17 14:08:35;;;;;;;3.00;1.70;;;;;36.00;101990.00;;;;10441845;28;20645;-76
2021/07/17 14:13:40;;;;;;;5.47;1.98;;;;;36.30;101989.00;;;;10455170;28;20188;-77
2021/07/17 14:18:43;;;;;;;4.10;1.67;;;;;36.90;101985.00;;;;10467689;28;20212;-76
2021/07/17 14:23:46;;;;;;;4.32;1.73;;;;;37.70;101975.00;;;;10451328;28;20233;-76
2021/07/17 14:28:48;;;;;;;4.95;1.90;;;;;38.10;101978.00;;;;10467397;28;20190;-76
2021/07/17 14:33:49;;;;;;;3.33;2.08;;;;;37.90;101972.00;;;;10513720;28;20906;-76
2021/07/17 14:38:51;;;;;;;4.40;2.42;;;;;38.60;101978.00;;;;10525211;28;20185;-77
2021/07/17 14:43:54;;;;;;;4.15;2.05;;;;;39.10;101974.00;;;;10524763;28;20224;-76
2021/07/17 14:48:58;;;;;;;4.45;2.33;;;;;39.10;101973.00;;;;10543157;28;20189;-76
2021/07/17 14:54:00;;;;;;;4.53;1.85;;;;;39.50;101976.00;;;;10478309;28;20204;-76
2021/07/17 14:59:03;;;;;;;4.18;2.20;;;;;39.00;101966.00;;;;10467000;28;20636;-77
2021/07/17 15:04:04;;;;;;;3.97;1.95;;;;;38.50;101969.00;;;;10465291;28;20206;-77
2021/07/17 15:09:06;;;;;;;2.80;1.50;;;;;38.80;101970.00;;;;10481870;28;20246;-76
2021/07/17 15:14:08;;;;;;;1.80;1.40;;;;;39.10;101960.00;;;;10454671;28;20193;-76
2021/07/17 15:19:10;;;;;;;2.85;1.50;;;;;39.10;101966.00;;;;10429718;28;20197;-76
2021/07/17 15:24:12;;;;;;;2.78;1.40;;;;;39.40;101968.00;;;;10482213;28;20201;-76
2021/07/17 15:29:14;;;;;;;2.47;1.38;;;;;39.90;101962.00;;;;10457835;28;20189;-76
2021/07/17 15:34:18;;;;;;;1.95;1.30;;;;;39.60;101957.00;;;;10480969;28;20214;-76
2021/07/17 15:39:20;;;;;;;3.35;1.45;;;;;39.80;101952.00;;;;10449036;28;20198;-76
2021/07/17 15:44:22;;;;;;;3.53;1.35;;;;;40.00;101946.00;;;;10455603;28;20217;-76
2021/07/17 15:49:24;;;;;;;1.40;1.05;;;;;38.30;101952.00;;;;10500585;28;20189;-76
2021/07/17 15:54:25;;;;;;;1.80;1.10;;;;;36.00;101949.00;;;;10445845;28;20202;-76
2021/07/17 15:59:28;;;;;;;2.40;1.38;;;;;31.80;101954.00;;;;10424602;28;20224;-76
2021/07/17 16:04:30;;;;;;;2.72;1.52;;;;;30.20;101949.00;;;;10459030;28;20252;-75
2021/07/17 16:09:34;;;;;;;2.22;1.25;;;;;29.20;101954.00;;;;10424714;28;20197;-75
2021/07/17 16:14:35;;;;;;;3.17;1.63;;;;;28.60;101940.00;;;;10407992;28;20198;-76
2021/07/17 16:19:37;;;;;;;2.72;1.40;;;;;28.40;101944.00;;;;10424422;28;20248;-76
2021/07/17 16:24:39;;;;;;;4.10;1.45;;;;;28.10;101943.00;;;;10445103;28;20348;-76
2021/07/17 16:29:41;;;;;;;5.85;1.65;;;;;27.60;101947.00;;;;10446001;28;20228;-76
2021/07/17 16:34:43;;;;;;;3.50;1.50;;;;;27.40;101936.00;;;;10446943;28;20225;-76
2021/07/17 16:39:45;;;;;;;5.60;1.20;;;;;27.20;101943.00;;;;10481470;28;20235;-76
2021/07/17 16:44:47;;;;;;;1.40;0.90;;;;;27.00;101936.00;;;;10480578;28;20217;-76
2021/07/17 16:49:49;;;;;;;1.80;0.90;;;;;26.80;101933.00;;;;10464175;28;20200;-75
2021/07/17 16:54:56;;;;;;;2.63;1.08;;;;;26.70;101931.00;;;;10449067;28;20268;-76
2021/07/17 16:59:59;;;;;;;0.88;0.88;;;;;26.70;101942.00;;;;10447611;28;20641;-76
2021/07/17 17:05:03;;;;;;;2.15;0.80;;;;;26.50;101940.00;;;;10480156;28;20205;-76
2021/07/17 17:10:07;;;;;;;2.55;1.10;;;;;26.30;101941.00;;;;10438403;28;20194;-76
2021/07/17 17:15:10;;;;;;;1.70;0.90;;;;;26.10;101933.00;;;;10463129;28;20228;-76
2021/07/17 17:20:13;;;;;;;2.28;0.93;;;;;26.00;101936.00;;;;10480089;28;20193;-76
2021/07/17 17:25:15;;;;;;;0.65;0.65;;;;;25.80;101935.00;;;;10404649;28;20220;-76
2021/07/17 17:30:17;;;;;;;3.45;0.80;;;;;25.70;101938.00;;;;10438380;28;20182;-76
2021/07/17 17:35:19;;;;;;;2.45;1.05;;;;;25.50;101942.00;;;;10421740;28;20233;-75
2021/07/17 17:40:21;;;;;;;1.33;1.00;;;;;25.40;101944.00;;;;10421582;28;20259;-76
2021/07/17 17:45:23;;;;;;;3.05;0.90;;;;;25.30;101947.00;;;;10421156;28;20628;-76
2021/07/17 17:50:25;;;;;;;1.58;0.98;;;;;25.20;101935.00;;;;10421608;28;20244;-76
2021/07/17 17:55:27;;;;;;;2.33;1.00;;;;;25.00;101951.00;;;;10483306;28;20285;-76
2021/07/17 18:00:30;;;;;;;1.88;0.93;;;;;24.90;101945.00;;;;10446410;28;20193;-76
2021/07/17 18:05:33;;;;;;;2.22;1.10;;;;;24.80;101953.00;;;;10437455;28;20206;-75
2021/07/17 18:10:35;;;;;;;5.40;1.10;;;;;24.70;101952.00;;;;10437493;28;20190;-75
2021/07/17 18:15:37;;;;;;;2.17;1.00;;;;;24.50;101948.00;;;;10437349;28;20186;-75
2021/07/17 18:20:39;;;;;;;2.60;1.13;;;;;24.40;101951.00;;;;10420964;28;20617;-76
2021/07/17 18:25:41;;;;;;;3.97;1.40;;;;;24.30;101960.00;;;;10467337;28;20908;-76
2021/07/17 18:30:43;;;;;;;2.45;1.10;;;;;24.20;101952.00;;;;10478929;28;20201;-75
2021/07/17 18:35:45;;;;;;;2.35;1.30;;;;;24.00;101964.00;;;;10477249;28;20241;-75
2021/07/17 18:40:51;;;;;;;2.78;1.20;;;;;23.90;101974.00;;;;10496470;28;20239;-75
2021/07/17 18:45:53;;;;;;;2.03;1.10;;;;;23.70;101975.00;;;;10473340;28;20220;-75
2021/07/17 18:50:55;;;;;;;2.90;1.17;;;;;23.50;101972.00;;;;10421183;28;20216;-76
2021/07/17 18:55:58;;;;;;;3.65;1.38;;;;;23.40;101968.00;;;;10428078;28;20248;-75
2021/07/17 19:01:01;;;;;;;4.55;1.42;;;;;23.20;101979.00;;;;10427325;28;20205;-75
2021/07/17 19:06:03;;;;;;;2.95;1.77;;;;;23.10;101979.00;;;;10411035;28;20560;-75
2021/07/17 19:11:05;;;;;;;2.17;1.05;;;;;22.90;101974.00;;;;10443816;28;20649;-76
2021/07/17 19:16:08;;;;;;;2.92;1.30;;;;;22.80;101978.00;;;;10443382;28;20198;-76
2021/07/17 19:21:10;;;;;;;5.47;1.88;;;;;22.60;101982.00;;;;10426374;28;20194;-76
2021/07/17 19:26:11;;;;;;;4.20;1.42;;;;;22.50;101985.00;;;;10476356;28;20197;-76
2021/07/17 19:31:13;;;;;;;3.72;1.75;;;;;22.30;101983.00;;;;10484115;28;20244;-76
2021/07/17 19:36:15;;;;;;;3.08;1.73;;;;;22.00;101987.00;;;;10483693;28;20732;-76
2021/07/17 19:41:17;;;;;;;2.22;1.40;;;;;21.70;101996.00;;;;10466724;28;20189;-76
2021/07/17 19:46:19;;;;;;;3.50;1.52;;;;;21.50;102004.00;;;;10483465;28;20201;-75
2021/07/17 19:51:22;;;;;;;5.32;1.90;;;;;21.30;102002.00;;;;10466550;28;20209;-75
2021/07/17 19:56:24;;;;;;;3.85;1.48;;;;;21.10;102006.00;;;;10431405;28;20202;-76
2021/07/17 20:01:26;;;;;;;3.95;1.45;;;;;21.00;102005.00;;;;10459617;28;20189;-76
2021/07/17 20:06:28;;;;;;;2.75;1.63;;;;;20.80;102014.00;;;;10409279;28;20187;-76
2021/07/17 20:11:30;;;;;;;2.95;1.40;;;;;20.70;102000.00;;;;10424402;28;20187;-75
2021/07/17 20:16:33;;;;;;;4.57;1.70;;;;;20.60;102013.00;;;;10423799;28;20195;-75
2021/07/17 20:21:36;;;;;;;4.10;1.30;;;;;20.40;102014.00;;;;10440676;28;20565;-75
2021/07/17 20:26:37;;;;;;;2.67;1.48;;;;;20.30;102013.00;;;;10452634;28;20194;-75
2021/07/17 20:31:41;;;;;;;5.65;1.80;;;;;20.20;102018.00;;;;10456890;28;20278;-75
2021/07/17 20:36:44;;;;;;;3.05;1.58;;;;;20.10;102018.00;;;;10440265;28;20194;-75
2021/07/17 20:41:47;;;;;;;4.60;2.10;;;;;20.00;102023.00;;;;10457106;28;20665;-75
2021/07/17 20:46:50;;;;;;;3.10;1.63;;;;;19.90;102031.00;;;;10422884;28;20202;-74
2021/07/17 20:51:53;;;;;;;2.33;1.75;;;;;19.80;102031.00;;;;10439603;28;20273;-75
2021/07/17 20:56:55;;;;;;;3.22;1.77;;;;;19.70;102036.00;;;;10440649;28;20202;-75
2021/07/17 21:01:57;;;;;;;3.13;1.58;;;;;19.60;102035.00;;;;10455739;28;20206;-74
2021/07/17 21:07:00;;;;;;;3.65;1.85;;;;;19.50;102032.00;;;;10405552;28;20225;-75
2021/07/17 21:12:01;;;;;;;4.32;1.55;;;;;19.40;102035.00;;;;10422369;28;20190;-75
2021/07/17 21:17:04;;;;;;;6.10;1.90;;;;;19.20;102035.00;;;;10437900;28;20205;-75
2021/07/17 21:22:07;;;;;;;3.35;1.60;;;;;19.10;102040.00;;;;10441226;28;20289;-75
2021/07/17 21:27:10;;;;;;;3.30;1.95;;;;;19.00;102050.00;;;;10521462;28;20185;-75
2021/07/17 21:32:13;;;;;;;3.95;1.92;;;;;18.90;102044.00;;;;10504411;28;20213;-75
2021/07/17 21:37:15;;;;;;;5.38;2.47;;;;;18.70;102042.00;;;;10520682;28;20196;-75
2021/07/17 21:42:17;;;;;;;6.10;2.40;;;;;18.70;102043.00;;;;10487115;28;20644;-75
2021/07/17 21:47:18;;;;;;;6.35;1.83;;;;;18.60;102046.00;;;;10504323;28;20195;-75
2021/07/17 21:52:20;;;;;;;4.90;2.30;;;;;18.60;102058.00;;;;10485595;28;20181;-75
2021/07/17 21:57:22;;;;;;;3.15;2.17;;;;;18.60;102053.00;;;;10442694;28;20255;-75
2021/07/17 22:02:24;;;;;;;2.63;2.38;;;;;18.50;102047.00;;;;10420793;28;20213;-76
2021/07/17 22:07:26;;;;;;;4.88;2.55;;;;;18.40;102060.00;;;;10421176;28;20518;-76
2021/07/17 22:12:29;;;;;;;2.58;2.00;;;;;18.30;102047.00;;;;10420759;28;20190;-75
2021/07/17 22:17:33;;;;;;;6.80;2.42;;;;;18.30;102062.00;;;;10420606;28;20612;-75
2021/07/17 22:22:37;;;;;;;3.13;2.40;;;;;18.20;102060.00;;;;10403729;28;20666;-75
2021/07/17 22:27:38;;;;;;;2.47;2.22;;;;;18.10;102052.00;;;;10440858;28;20260;-75
2021/07/17 22:32:40;;;;;;;3.40;2.40;;;;;18.00;102061.00;;;;10412084;28;20213;-75
2021/07/17 22:37:42;;;;;;;4.82;2.25;;;;;18.00;102066.00;;;;10444528;28;20175;-75
2021/07/17 22:42:45;;;;;;;6.53;2.38;;;;;17.90;102056.00;;;;10427813;28;20217;-75
2021/07/17 22:47:47;;;;;;;5.53;2.55;;;;;17.90;102062.00;;;;10410877;28;20195;-75
2021/07/17 22:52:51;;;;;;;3.20;2.40;;;;;17.80;102047.00;;;;10403640;28;20198;-75
2021/07/17 22:57:54;;;;;;;3.80;2.75;;;;;17.70;102051.00;;;;10468835;28;20197;-75
2021/07/17 23:02:56;;;;;;;4.80;2.33;;;;;17.60;102039.00;;;;10470617;28;20607;-75
2021/07/17 23:08:00;;;;;;;5.90;2.55;;;;;17.60;102044.00;;;;10443193;28;20202;-75
2021/07/17 23:13:07;;;;;;;4.53;2.67;;;;;17.50;102044.00;;;;10443102;28;20194;-75
2021/07/17 23:18:09;;;;;;;4.32;2.90;;;;;17.40;102040.00;;;;10426775;28;20202;-75
2021/07/17 23:23:11;;;;;;;4.15;2.80;;;;;17.40;102037.00;;;;10451770;28;20201;-75
2021/07/17 23:28:13;;;;;;;5.47;2.40;;;;;17.30;102028.00;;;;10467489;28;20640;-75
2021/07/17 23:33:15;;;;;;;5.40;2.42;;;;;17.20;102038.00;;;;10456762;28;20214;-75
2021/07/17 23:38:17;;;;;;;4.40;2.90;;;;;17.10;102038.00;;;;10441864;28;20194;-75
2021/07/17 23:43:18;;;;;;;7.07;2.80;;;;;17.00;102037.00;;;;10459847;28;20218;-75
2021/07/17 23:48:21;;;;;;;4.70;3.15;;;;;17.00;102031.00;;;;10441774;28;20247;-75
2021/07/17 23:53:23;;;;;;;4.18;2.65;;;;;16.90;102025.00;;;;10488555;28;20323;-75
2021/07/17 23:58:24;;;;;;;3.90;2.77;;;;;16.90;102023.00;;;;10424918;28;20198;-75
